Time,TemperatureF,DewpointF,PressureIn,WindDirection,WindDirectionDegrees,WindSpeedMPH,WindSpeedGustMPH,Humidity,HourlyPrecipIn,Conditions,Clouds,dailyrainin,SoftwareType,DateUTC
2013-05-03 00:02:00,54.9,37.6,29.94,WNW,292,0.0,0.0,52,0.00,,,0.00,meteohub,2013-05-03 07:02:00,
2013-05-03 00:07:00,54.9,37.6,29.94,WNW,292,0.0,0.0,52,0.00,,,0.00,meteohub,2013-05-03 07:07:00,
2013-05-03 00:12:00,54.9,37.6,29.93,WNW,292,0.0,0.0,52,0.00,,,0.00,meteohub,2013-05-03 07:12:00,
2013-05-03 00:17:00,54.9,37.6,29.93,WNW,292,0.0,0.0,52,0.00,,,0.00,meteohub,2013-05-03 07:17:00,
2013-05-03 00:22:00,54.7,37.4,29.93,WNW,292,0.0,0.0,52,0.00,,,0.00,meteohub,2013-05-03 07:22:00,
2013-05-03 00:27:00,54.7,37.4,29.93,WNW,292,0.0,0.0,52,0.00,,,0.00,meteohub,2013-05-03 07:27:00,
2013-05-03 00:32:00,54.7,37.4,29.93,WNW,292,0.0,0.0,52,0.00,,,0.00,meteohub,2013-05-03 07:32:00,
2013-05-03 00:37:00,54.7,36.9,29.93,WNW,292,0.0,0.0,51,0.00,,,0.00,meteohub,2013-05-03 07:37:00,
2013-05-03 00:42:00,54.7,37.4,29.93,WNW,292,0.0,0.0,52,0.00,,,0.00,meteohub,2013-05-03 07:42:00,
2013-05-03 00:47:00,54.7,37.9,29.93,WNW,292,0.0,0.0,53,0.00,,,0.00,meteohub,2013-05-03 07:47:00,
2013-05-03 00:52:00,54.5,37.8,29.93,WNW,292,0.0,0.0,53,0.00,,,0.00,meteohub,2013-05-03 07:52:00,
2013-05-03 00:57:00,54.3,37.6,29.93,WNW,292,0.0,0.0,53,0.00,,,0.00,meteohub,2013-05-03 07:57:00,
2013-05-03 01:02:00,54.3,37.6,29.93,WNW,292,0.0,0.0,53,0.00,,,0.00,meteohub,2013-05-03 08:02:00,
2013-05-03 01:07:00,54.1,36.9,29.93,WNW,292,0.0,0.0,52,0.00,,,0.00,meteohub,2013-05-03 08:07:00,
2013-05-03 01:12:00,54.1,36.9,29.93,WNW,292,0.0,0.0,52,0.00,,,0.00,meteohub,2013-05-03 08:12:00,
2013-05-03 01:17:00,54.1,36.3,29.93,WNW,292,0.0,0.0,51,0.00,,,0.00,meteohub,2013-05-03 08:17:00,
2013-05-03 01:22:00,54.1,36.3,29.93,WNW,292,0.0,0.0,51,0.00,,,0.00,meteohub,2013-05-03 08:22:00,
2013-05-03 01:27:00,54.0,36.7,29.92,WNW,292,0.0,0.0,52,0.00,,,0.00,meteohub,2013-05-03 08:27:00,
2013-05-03 01:32:00,53.8,36.5,29.92,WNW,292,0.0,0.0,52,0.00,,,0.00,meteohub,2013-05-03 08:32:00,
2013-05-03 01:37:00,53.8,37.0,29.92,WNW,292,0.0,0.0,53,0.00,,,0.00,meteohub,2013-05-03 08:37:00,
2013-05-03 01:42:00,53.8,37.6,29.92,WNW,292,0.0,0.0,54,0.00,,,0.00,meteohub,2013-05-03 08:42:00,
2013-05-03 01:47:00,53.6,36.9,29.92,WNW,292,0.0,0.0,53,0.00,,,0.00,meteohub,2013-05-03 08:47:00,
2013-05-03 01:52:00,53.4,37.2,29.92,WNW,292,0.0,0.0,54,0.00,,,0.00,meteohub,2013-05-03 08:52:00,
2013-05-03 01:57:00,53.4,37.2,29.91,WNW,292,0.0,0.0,54,0.00,,,0.00,meteohub,2013-05-03 08:57:00,
2013-05-03 02:02:00,53.4,37.2,29.91,WNW,292,0.0,0.0,54,0.00,,,0.00,meteohub,2013-05-03 09:02:00,
2013-05-03 02:07:00,53.2,36.5,29.91,WNW,292,0.0,0.0,53,0.00,,,0.00,meteohub,2013-05-03 09:07:00,
2013-05-03 02:12:00,53.1,36.3,29.91,WNW,292,0.0,0.0,53,0.00,,,0.00,meteohub,2013-05-03 09:12:00,
2013-05-03 02:17:00,53.1,36.9,29.91,WNW,292,0.0,0.0,54,0.00,,,0.00,meteohub,2013-05-03 09:17:00,
2013-05-03 02:22:00,52.9,36.1,29.91,WNW,292,0.0,0.0,53,0.00,,,0.00,meteohub,2013-05-03 09:22:00,
2013-05-03 02:27:00,52.9,37.2,29.91,WNW,292,0.0,0.0,55,0.00,,,0.00,meteohub,2013-05-03 09:27:00,
2013-05-03 02:32:00,52.7,36.5,29.91,WNW,292,0.0,0.0,54,0.00,,,0.00,meteohub,2013-05-03 09:32:00,
2013-05-03 02:37:00,52.5,36.9,29.91,WNW,292,0.0,0.0,55,0.00,,,0.00,meteohub,2013-05-03 09:37:00,
2013-05-03 02:42:00,52.5,36.3,29.90,WNW,292,0.0,0.0,54,0.00,,,0.00,meteohub,2013-05-03 09:42:00,
2013-05-03 02:47:00,52.3,35.2,29.90,WNW,292,0.0,0.0,52,0.00,,,0.00,meteohub,2013-05-03 09:47:00,
2013-05-03 02:52:00,52.3,36.1,29.90,WNW,292,0.0,0.0,54,0.00,,,0.00,meteohub,2013-05-03 09:52:00,
2013-05-03 02:57:00,52.3,36.7,29.90,WNW,292,0.0,0.0,55,0.00,,,0.00,meteohub,2013-05-03 09:57:00,
2013-05-03 03:02:00,52.3,36.7,29.90,WNW,292,0.0,0.0,55,0.00,,,0.00,meteohub,2013-05-03 10:02:00,
2013-05-03 03:07:00,52.3,36.7,29.90,WNW,292,0.0,0.0,55,0.00,,,0.00,meteohub,2013-05-03 10:07:00,
2013-05-03 03:12:00,52.2,36.0,29.90,WNW,292,0.0,0.0,54,0.00,,,0.00,meteohub,2013-05-03 10:12:00,
2013-05-03 03:17:00,52.2,36.5,29.90,WNW,292,0.0,0.0,55,0.00,,,0.00,meteohub,2013-05-03 10:17:00,
2013-05-03 03:22:00,52.2,36.5,29.90,WNW,292,0.0,0.0,55,0.00,,,0.00,meteohub,2013-05-03 10:22:00,
2013-05-03 03:27:00,52.2,37.4,29.89,WNW,292,0.0,0.0,57,0.00,,,0.00,meteohub,2013-05-03 10:27:00,
2013-05-03 03:34:00,52.3,37.0,29.89,WNW,292,0.0,0.0,56,0.00,,,0.00,meteohub,2013-05-03 10:34:00,
2013-05-03 03:39:00,52.3,37.0,29.89,WNW,292,0.0,0.0,56,0.00,,,0.00,meteohub,2013-05-03 10:39:00,
2013-05-03 03:44:00,52.3,37.0,29.89,WNW,292,0.0,0.0,56,0.00,,,0.00,meteohub,2013-05-03 10:44:00,
2013-05-03 03:49:00,52.3,36.1,29.89,WNW,292,0.0,0.0,54,0.00,,,0.00,meteohub,2013-05-03 10:49:00,
2013-05-03 03:54:00,52.3,36.7,29.89,WNW,292,0.0,0.0,55,0.00,,,0.00,meteohub,2013-05-03 10:54:00,
2013-05-03 03:59:00,52.3,36.7,29.88,WNW,292,0.0,0.0,55,0.00,,,0.00,meteohub,2013-05-03 10:59:00,
2013-05-03 04:04:00,52.5,36.0,29.88,WNW,292,0.0,0.0,53,0.00,,,0.00,meteohub,2013-05-03 11:04:00,
2013-05-03 04:09:00,52.9,36.7,29.88,WNW,292,0.0,0.0,54,0.00,,,0.00,meteohub,2013-05-03 11:09:00,
2013-05-03 04:14:00,52.9,36.7,29.88,WNW,292,0.0,0.0,54,0.00,,,0.00,meteohub,2013-05-03 11:14:00,
2013-05-03 04:19:00,52.9,36.1,29.88,WNW,292,0.0,0.0,53,0.00,,,0.00,meteohub,2013-05-03 11:19:00,
2013-05-03 04:24:00,52.9,36.1,29.88,WNW,292,0.0,0.0,53,0.00,,,0.00,meteohub,2013-05-03 11:24:00,
2013-05-03 04:29:00,52.9,35.8,29.88,WNW,292,0.0,0.0,52,0.00,,,0.00,meteohub,2013-05-03 11:29:00,
2013-05-03 04:34:00,52.5,36.0,29.88,WNW,292,0.0,0.0,53,0.00,,,0.00,meteohub,2013-05-03 11:34:00,
2013-05-03 04:39:00,52.5,36.9,29.88,WNW,292,0.0,0.0,55,0.00,,,0.00,meteohub,2013-05-03 11:39:00,
2013-05-03 04:44:00,52.3,35.8,29.88,WNW,292,0.0,0.0,53,0.00,,,0.00,meteohub,2013-05-03 11:44:00,
2013-05-03 04:49:00,52.3,36.1,29.88,WNW,292,0.0,0.0,54,0.00,,,0.00,meteohub,2013-05-03 11:49:00,
2013-05-03 04:54:00,52.3,36.7,29.88,WNW,292,0.0,0.0,55,0.00,,,0.00,meteohub,2013-05-03 11:54:00,
2013-05-03 04:59:00,52.3,35.2,29.88,WNW,292,0.0,0.0,52,0.00,,,0.00,meteohub,2013-05-03 11:59:00,
2013-05-03 05:04:00,52.3,35.8,29.88,WNW,292,0.0,0.0,53,0.00,,,0.00,meteohub,2013-05-03 12:04:00,
2013-05-03 05:09:00,52.3,36.7,29.88,WNW,292,0.0,0.0,55,0.00,,,0.00,meteohub,2013-05-03 12:09:00,
2013-05-03 05:14:00,52.3,36.1,29.88,WNW,292,0.0,0.0,54,0.00,,,0.00,meteohub,2013-05-03 12:14:00,
2013-05-03 05:19:00,52.3,35.8,29.88,WNW,292,0.0,0.0,53,0.00,,,0.00,meteohub,2013-05-03 12:19:00,
2013-05-03 05:24:00,52.2,35.6,29.88,WNW,292,0.0,0.0,53,0.00,,,0.00,meteohub,2013-05-03 12:24:00,
2013-05-03 05:29:00,52.0,34.3,29.88,WNW,292,0.0,0.0,51,0.00,,,0.00,meteohub,2013-05-03 12:29:00,
2013-05-03 05:34:00,52.0,34.3,29.88,WNW,292,0.0,0.0,51,0.00,,,0.00,meteohub,2013-05-03 12:34:00,
2013-05-03 05:39:00,51.6,34.5,29.88,WNW,292,0.0,0.0,52,0.00,,,0.00,meteohub,2013-05-03 12:39:00,
2013-05-03 05:44:00,51.6,35.1,29.88,WNW,292,0.0,0.0,53,0.00,,,0.00,meteohub,2013-05-03 12:44:00,
2013-05-03 05:49:00,51.4,35.4,29.88,WNW,292,0.0,0.0,54,0.00,,,0.00,meteohub,2013-05-03 12:49:00,
2013-05-03 05:54:00,51.3,35.2,29.88,WNW,292,0.0,0.0,54,0.00,,,0.00,meteohub,2013-05-03 12:54:00,
2013-05-03 05:59:00,51.1,34.5,29.87,WNW,292,0.0,0.0,53,0.00,,,0.00,meteohub,2013-05-03 12:59:00,
2013-05-03 06:04:00,50.7,35.6,29.87,WNW,292,0.0,0.0,56,0.00,,,0.00,meteohub,2013-05-03 13:04:00,
2013-05-03 06:09:00,50.5,35.1,29.87,WNW,292,0.0,0.0,55,0.00,,,0.00,meteohub,2013-05-03 13:09:00,
2013-05-03 06:14:00,50.4,34.9,29.87,WNW,292,0.0,0.0,55,0.00,,,0.00,meteohub,2013-05-03 13:14:00,
2013-05-03 06:19:00,50.2,34.2,29.87,WNW,292,0.0,0.0,54,0.00,,,0.00,meteohub,2013-05-03 13:19:00,
2013-05-03 06:24:00,50.2,35.6,29.87,WNW,292,0.0,0.0,57,0.00,,,0.00,meteohub,2013-05-03 13:24:00,
2013-05-03 06:29:00,50.2,36.0,29.87,WNW,292,0.0,0.0,58,0.00,,,0.00,meteohub,2013-05-03 13:29:00,
2013-05-03 06:34:00,50.0,36.3,29.87,WNW,292,0.0,0.0,59,0.00,,,0.00,meteohub,2013-05-03 13:34:00,
2013-05-03 06:39:00,50.0,36.3,29.88,WNW,292,0.0,0.0,59,0.00,,,0.00,meteohub,2013-05-03 13:39:00,
2013-05-03 06:44:00,50.2,36.3,29.88,WNW,292,0.0,0.0,59,0.00,,,0.00,meteohub,2013-05-03 13:44:00,
2013-05-03 06:49:00,50.2,36.0,29.88,WNW,292,0.0,0.0,58,0.00,,,0.00,meteohub,2013-05-03 13:49:00,
2013-05-03 06:54:00,50.4,37.0,29.88,WNW,292,0.0,0.0,60,0.00,,,0.00,meteohub,2013-05-03 13:54:00,
2013-05-03 06:59:00,50.4,36.1,29.88,WNW,292,0.0,0.0,58,0.00,,,0.00,meteohub,2013-05-03 13:59:00,
2013-05-03 07:04:00,50.4,35.8,29.88,WNW,292,0.0,0.0,57,0.00,,,0.00,meteohub,2013-05-03 14:04:00,
2013-05-03 07:09:00,50.5,37.6,29.88,WNW,292,0.0,0.0,61,0.00,,,0.00,meteohub,2013-05-03 14:09:00,
2013-05-03 07:14:00,50.5,36.7,29.88,WNW,292,0.0,0.0,59,0.00,,,0.00,meteohub,2013-05-03 14:14:00,
2013-05-03 07:19:00,50.7,39.0,29.88,WNW,292,0.0,0.0,64,0.00,,,0.00,meteohub,2013-05-03 14:19:00,
2013-05-03 07:24:00,50.9,38.3,29.88,WNW,292,0.0,0.0,62,0.00,,,0.00,meteohub,2013-05-03 14:24:00,
2013-05-03 07:29:00,51.3,40.6,29.88,WNW,292,0.0,0.0,67,0.00,,,0.00,meteohub,2013-05-03 14:29:00,
2013-05-03 07:34:00,51.4,41.2,29.88,WNW,292,0.0,0.0,68,0.00,,,0.00,meteohub,2013-05-03 14:34:00,
2013-05-03 07:39:00,52.0,41.4,29.88,WNW,292,0.0,0.0,67,0.00,,,0.00,meteohub,2013-05-03 14:39:00,
2013-05-03 07:44:00,52.5,43.0,29.88,WNW,292,0.0,0.0,70,0.00,,,0.00,meteohub,2013-05-03 14:44:00,
2013-05-03 07:49:00,53.2,43.7,29.88,WNW,292,0.0,0.0,70,0.00,,,0.00,meteohub,2013-05-03 14:49:00,
2013-05-03 07:54:00,53.8,43.9,29.88,WNW,292,0.0,0.0,69,0.00,,,0.00,meteohub,2013-05-03 14:54:00,
2013-05-03 07:59:00,54.3,44.1,29.88,WNW,292,0.0,0.0,68,0.00,,,0.00,meteohub,2013-05-03 14:59:00,
2013-05-03 08:04:00,55.2,45.1,29.88,WNW,292,0.0,0.0,69,0.00,,,0.00,meteohub,2013-05-03 15:04:00,
2013-05-03 08:09:00,56.1,45.7,29.88,WNW,292,0.0,0.0,68,0.00,,,0.00,meteohub,2013-05-03 15:09:00,
2013-05-03 08:14:00,56.8,44.8,29.88,WNW,292,0.0,0.0,64,0.00,,,0.00,meteohub,2013-05-03 15:14:00,
2013-05-03 08:19:00,57.7,47.3,29.88,WNW,292,0.0,0.0,68,0.00,,,0.00,meteohub,2013-05-03 15:19:00,
2013-05-03 08:24:00,58.8,48.2,29.87,WNW,292,0.0,0.0,68,0.00,,,0.00,meteohub,2013-05-03 15:24:00,
2013-05-03 08:29:00,60.1,46.2,29.87,WNW,292,0.0,0.0,60,0.00,,,0.00,meteohub,2013-05-03 15:29:00,
2013-05-03 08:34:00,61.2,46.2,29.87,WNW,292,0.0,0.0,58,0.00,,,0.00,meteohub,2013-05-03 15:34:00,
2013-05-03 08:39:00,62.2,42.8,29.87,WNW,292,0.0,0.0,49,0.00,,,0.00,meteohub,2013-05-03 15:39:00,
2013-05-03 08:44:00,63.3,45.0,29.87,WNW,292,0.0,0.0,51,0.00,,,0.00,meteohub,2013-05-03 15:44:00,
2013-05-03 08:49:00,64.8,44.6,29.87,WNW,292,0.0,0.0,48,0.00,,,0.00,meteohub,2013-05-03 15:49:00,
2013-05-03 08:54:00,65.8,44.4,29.86,WNW,292,0.0,0.0,46,0.00,,,0.00,meteohub,2013-05-03 15:54:00,
2013-05-03 08:59:00,66.9,43.2,29.86,WNW,292,0.0,0.0,42,0.00,,,0.00,meteohub,2013-05-03 15:59:00,
2013-05-03 09:04:00,67.8,39.2,29.86,WNW,292,0.0,0.0,35,0.00,,,0.00,meteohub,2013-05-03 16:04:00,
2013-05-03 09:09:00,68.7,39.9,29.86,WNW,292,1.0,0.0,35,0.00,,,0.00,meteohub,2013-05-03 16:09:00,
2013-05-03 09:14:00,69.4,39.9,29.86,WNW,292,0.0,0.0,34,0.00,,,0.00,meteohub,2013-05-03 16:14:00,
2013-05-03 09:19:00,70.3,42.8,29.86,WNW,292,0.0,2.0,37,0.00,,,0.00,meteohub,2013-05-03 16:19:00,
2013-05-03 09:24:00,71.1,42.1,29.85,WNW,292,0.0,2.0,35,0.00,,,0.00,meteohub,2013-05-03 16:24:00,
2013-05-03 09:29:00,72.0,42.1,29.85,WNW,292,0.0,2.0,34,0.00,,,0.00,meteohub,2013-05-03 16:29:00,
2013-05-03 09:34:00,72.5,38.5,29.85,WNW,292,1.0,1.0,29,0.00,,,0.00,meteohub,2013-05-03 16:34:00,
2013-05-03 09:39:00,73.0,38.8,29.85,WNW,292,0.0,1.0,29,0.00,,,0.00,meteohub,2013-05-03 16:39:00,
2013-05-03 09:44:00,73.4,42.6,29.85,WNW,292,0.0,2.0,33,0.00,,,0.00,meteohub,2013-05-03 16:44:00,
2013-05-03 09:49:00,73.9,40.5,29.85,WNW,292,0.0,3.0,30,0.00,,,0.00,meteohub,2013-05-03 16:49:00,
2013-05-03 09:54:00,74.7,40.3,29.84,WNW,292,1.0,3.0,29,0.00,,,0.00,meteohub,2013-05-03 16:54:00,
2013-05-03 09:59:00,75.0,43.9,29.84,WNW,292,0.0,3.0,33,0.00,,,0.00,meteohub,2013-05-03 16:59:00,
2013-05-03 10:04:00,75.6,43.7,29.84,WNW,292,1.0,2.0,32,0.00,,,0.00,meteohub,2013-05-03 17:04:00,
2013-05-03 10:09:00,75.7,42.1,29.83,WNW,292,0.0,2.0,30,0.00,,,0.00,meteohub,2013-05-03 17:09:00,
2013-05-03 10:14:00,76.5,43.5,29.83,WNW,292,0.0,3.0,31,0.00,,,0.00,meteohub,2013-05-03 17:14:00,
2013-05-03 10:19:00,77.0,45.7,29.83,WNW,292,0.0,3.0,33,0.00,,,0.00,meteohub,2013-05-03 17:19:00,
2013-05-03 10:24:00,77.5,44.6,29.83,WNW,292,0.0,3.0,31,0.00,,,0.00,meteohub,2013-05-03 17:24:00,
2013-05-03 10:30:00,78.3,45.1,29.83,WNW,292,1.0,2.0,31,0.00,,,0.00,meteohub,2013-05-03 17:30:00,
2013-05-03 10:35:00,78.6,47.1,29.83,WNW,292,2.0,2.0,33,0.00,,,0.00,meteohub,2013-05-03 17:35:00,
2013-05-03 10:40:00,78.8,45.7,29.83,WNW,292,0.0,4.0,31,0.00,,,0.00,meteohub,2013-05-03 17:40:00,
2013-05-03 10:45:00,79.2,47.7,29.83,WNW,292,0.0,4.0,33,0.00,,,0.00,meteohub,2013-05-03 17:45:00,
2013-05-03 10:50:00,79.9,46.6,29.83,WNW,292,1.0,4.0,31,0.00,,,0.00,meteohub,2013-05-03 17:50:00,
2013-05-03 10:55:00,80.4,46.2,29.83,WNW,292,0.0,4.0,30,0.00,,,0.00,meteohub,2013-05-03 17:55:00,
2013-05-03 11:00:00,80.6,48.0,29.83,WNW,292,1.0,2.0,32,0.00,,,0.00,meteohub,2013-05-03 18:00:00,
2013-05-03 11:05:00,81.1,49.3,29.83,WNW,292,0.0,4.0,33,0.00,,,0.00,meteohub,2013-05-03 18:05:00,
2013-05-03 11:10:00,81.7,47.3,29.82,WNW,292,0.0,4.0,30,0.00,,,0.00,meteohub,2013-05-03 18:10:00,
2013-05-03 11:15:00,81.9,49.1,29.82,WNW,292,0.0,2.0,32,0.00,,,0.00,meteohub,2013-05-03 18:15:00,
2013-05-03 11:20:00,82.4,50.4,29.82,WNW,292,0.0,3.0,33,0.00,,,0.00,meteohub,2013-05-03 18:20:00,
2013-05-03 11:25:00,82.8,49.8,29.82,WNW,292,1.0,3.0,32,0.00,,,0.00,meteohub,2013-05-03 18:25:00,
2013-05-03 11:30:00,82.9,48.4,29.82,WNW,292,1.0,3.0,30,0.00,,,0.00,meteohub,2013-05-03 18:30:00,
2013-05-03 11:35:00,83.3,50.4,29.82,WNW,292,0.0,3.0,32,0.00,,,0.00,meteohub,2013-05-03 18:35:00,
2013-05-03 11:40:00,83.7,45.1,29.81,WNW,292,0.0,3.0,26,0.00,,,0.00,meteohub,2013-05-03 18:40:00,
2013-05-03 11:45:00,84.0,47.5,29.81,WNW,292,0.0,2.0,28,0.00,,,0.00,meteohub,2013-05-03 18:45:00,
2013-05-03 11:50:00,84.4,49.6,29.81,WNW,292,0.0,3.0,30,0.00,,,0.00,meteohub,2013-05-03 18:50:00,
2013-05-03 11:55:00,84.7,46.0,29.81,WNW,292,0.0,3.0,26,0.00,,,0.00,meteohub,2013-05-03 18:55:00,
2013-05-03 12:00:00,85.5,47.7,29.81,WNW,292,0.0,3.0,27,0.00,,,0.00,meteohub,2013-05-03 19:00:00,
2013-05-03 12:05:00,86.0,46.0,29.81,WNW,292,1.0,1.0,25,0.00,,,0.00,meteohub,2013-05-03 19:05:00,
2013-05-03 12:10:00,86.5,46.6,29.80,WNW,292,0.0,2.0,25,0.00,,,0.00,meteohub,2013-05-03 19:10:00,
2013-05-03 12:15:00,86.7,45.7,29.80,WNW,292,0.0,2.0,24,0.00,,,0.00,meteohub,2013-05-03 19:15:00,
2013-05-03 12:20:00,86.5,44.4,29.80,WNW,292,0.0,3.0,23,0.00,,,0.00,meteohub,2013-05-03 19:20:00,
2013-05-03 12:25:00,86.7,44.4,29.79,WNW,292,2.0,3.0,23,0.00,,,0.00,meteohub,2013-05-03 19:25:00,
2013-05-03 12:30:00,87.1,44.8,29.79,WNW,292,1.0,3.0,23,0.00,,,0.00,meteohub,2013-05-03 19:30:00,
2013-05-03 12:35:00,87.3,47.1,29.79,WNW,292,0.0,3.0,25,0.00,,,0.00,meteohub,2013-05-03 19:35:00,
2013-05-03 12:40:00,87.6,44.1,29.79,West,277,2.0,3.0,22,0.00,,,0.00,meteohub,2013-05-03 19:40:00,
2013-05-03 12:45:00,87.4,47.3,29.79,West,278,0.0,4.0,25,0.00,,,0.00,meteohub,2013-05-03 19:45:00,
2013-05-03 12:50:00,87.6,45.3,29.79,West,278,0.0,4.0,23,0.00,,,0.00,meteohub,2013-05-03 19:50:00,
2013-05-03 12:55:00,87.8,44.2,29.78,WNW,296,0.0,3.0,22,0.00,,,0.00,meteohub,2013-05-03 19:55:00,
2013-05-03 13:00:00,88.0,43.2,29.78,NW,305,2.0,6.0,21,0.00,,,0.00,meteohub,2013-05-03 20:00:00,
2013-05-03 13:05:00,88.2,45.7,29.78,NW,306,1.0,6.0,23,0.00,,,0.00,meteohub,2013-05-03 20:05:00,
2013-05-03 13:10:00,88.3,42.3,29.77,NW,313,2.0,6.0,20,0.00,,,0.00,meteohub,2013-05-03 20:10:00,
2013-05-03 13:15:00,88.0,43.2,29.77,NW,313,1.0,5.0,21,0.00,,,0.00,meteohub,2013-05-03 20:15:00,
2013-05-03 13:20:00,88.2,45.7,29.77,NW,313,0.0,5.0,23,0.00,,,0.00,meteohub,2013-05-03 20:20:00,
2013-05-03 13:25:00,88.3,42.3,29.77,NW,314,0.0,3.0,20,0.00,,,0.00,meteohub,2013-05-03 20:25:00,
2013-05-03 13:30:00,88.3,43.5,29.77,NW,314,1.0,3.0,21,0.00,,,0.00,meteohub,2013-05-03 20:30:00,
2013-05-03 13:35:00,88.0,43.2,29.77,NW,313,1.0,5.0,21,0.00,,,0.00,meteohub,2013-05-03 20:35:00,
2013-05-03 13:40:00,88.0,46.6,29.76,NW,313,1.0,5.0,24,0.00,,,0.00,meteohub,2013-05-03 20:40:00,
2013-05-03 13:45:00,88.3,49.1,29.76,NW,312,3.0,5.0,26,0.00,,,0.00,meteohub,2013-05-03 20:45:00,
2013-05-03 13:50:00,88.5,49.3,29.76,NW,311,1.0,5.0,26,0.00,,,0.00,meteohub,2013-05-03 20:50:00,
2013-05-03 13:55:00,88.7,47.3,29.75,NW,321,1.0,5.0,24,0.00,,,0.00,meteohub,2013-05-03 20:55:00,
2013-05-03 14:00:00,88.9,48.6,29.75,NW,320,0.0,5.0,25,0.00,,,0.00,meteohub,2013-05-03 21:00:00,
2013-05-03 14:05:00,88.5,46.0,29.75,NW,319,2.0,5.0,23,0.00,,,0.00,meteohub,2013-05-03 21:05:00,
2013-05-03 14:10:00,88.3,46.9,29.75,NW,324,2.0,6.0,24,0.00,,,0.00,meteohub,2013-05-03 21:10:00,
2013-05-03 14:15:00,88.2,47.8,29.75,NNW,328,5.0,6.0,25,0.00,,,0.00,meteohub,2013-05-03 21:15:00,
2013-05-03 14:20:00,88.0,47.8,29.75,NNW,327,0.0,6.0,25,0.00,,,0.00,meteohub,2013-05-03 21:20:00,
2013-05-03 14:25:00,88.2,48.9,29.75,NNW,331,0.0,5.0,26,0.00,,,0.00,meteohub,2013-05-03 21:25:00,
2013-05-03 14:30:00,88.3,48.0,29.75,NNW,329,0.0,5.0,25,0.00,,,0.00,meteohub,2013-05-03 21:30:00,
2013-05-03 14:35:00,88.3,49.1,29.75,NW,326,1.0,6.0,26,0.00,,,0.00,meteohub,2013-05-03 21:35:00,
2013-05-03 14:40:00,88.3,50.2,29.74,NNW,332,3.0,6.0,27,0.00,,,0.00,meteohub,2013-05-03 21:40:00,
2013-05-03 14:45:00,88.5,50.4,29.74,NNW,332,0.0,6.0,27,0.00,,,0.00,meteohub,2013-05-03 21:45:00,
2013-05-03 14:50:00,88.5,52.2,29.74,WNW,298,0.0,6.0,29,0.00,,,0.00,meteohub,2013-05-03 21:50:00,
2013-05-03 14:55:00,88.5,53.1,29.73,WNW,298,0.0,5.0,30,0.00,,,0.00,meteohub,2013-05-03 21:55:00,
2013-05-03 15:00:00,88.3,50.2,29.73,SW,230,0.0,5.0,27,0.00,,,0.00,meteohub,2013-05-03 22:00:00,
2013-05-03 15:05:00,88.3,51.1,29.73,West,263,2.0,5.0,28,0.00,,,0.00,meteohub,2013-05-03 22:05:00,
2013-05-03 15:10:00,87.8,50.7,29.73,West,265,0.0,5.0,28,0.00,,,0.00,meteohub,2013-05-03 22:10:00,
2013-05-03 15:15:00,87.8,51.6,29.73,West,265,0.0,5.0,29,0.00,,,0.00,meteohub,2013-05-03 22:15:00,
2013-05-03 15:20:00,88.0,54.5,29.73,West,265,0.0,5.0,32,0.00,,,0.00,meteohub,2013-05-03 22:20:00,
2013-05-03 15:25:00,87.6,49.5,29.73,West,265,0.0,6.0,27,0.00,,,0.00,meteohub,2013-05-03 22:25:00,
2013-05-03 15:30:00,87.4,50.4,29.73,West,268,4.0,6.0,28,0.00,,,0.00,meteohub,2013-05-03 22:30:00,
2013-05-03 15:35:00,87.3,50.2,29.73,West,271,6.0,6.0,28,0.00,,,0.00,meteohub,2013-05-03 22:35:00,
2013-05-03 15:40:00,86.7,49.6,29.72,West,273,1.0,8.0,28,0.00,,,0.00,meteohub,2013-05-03 22:40:00,
2013-05-03 15:45:00,86.5,50.5,29.72,West,273,2.0,8.0,29,0.00,,,0.00,meteohub,2013-05-03 22:45:00,
2013-05-03 15:50:00,86.2,48.2,29.72,West,266,2.0,10.0,27,0.00,,,0.00,meteohub,2013-05-03 22:50:00,
2013-05-03 15:55:00,85.8,49.8,29.72,West,268,2.0,10.0,29,0.00,,,0.00,meteohub,2013-05-03 22:55:00,
2013-05-03 16:00:00,85.6,49.8,29.72,West,269,0.0,10.0,29,0.00,,,0.00,meteohub,2013-05-03 23:00:00,
2013-05-03 16:05:00,85.6,51.6,29.72,West,269,2.0,6.0,31,0.00,,,0.00,meteohub,2013-05-03 23:05:00,
2013-05-03 16:10:00,85.1,48.4,29.72,West,277,2.0,7.0,28,0.00,,,0.00,meteohub,2013-05-03 23:10:00,
2013-05-03 16:15:00,84.6,46.9,29.72,WNW,285,0.0,7.0,27,0.00,,,0.00,meteohub,2013-05-03 23:15:00,
2013-05-03 16:20:00,84.4,50.4,29.72,WNW,289,1.0,7.0,31,0.00,,,0.00,meteohub,2013-05-03 23:20:00,
2013-05-03 16:25:00,84.2,47.5,29.72,WNW,289,0.0,6.0,28,0.00,,,0.00,meteohub,2013-05-03 23:25:00,
2013-05-03 16:30:00,83.7,48.0,29.72,WNW,302,3.0,6.0,29,0.00,,,0.00,meteohub,2013-05-03 23:30:00,
2013-05-03 16:35:00,83.1,46.6,29.72,West,268,0.0,5.0,28,0.00,,,0.00,meteohub,2013-05-03 23:35:00,
2013-05-03 16:40:00,82.6,44.2,29.72,WNW,286,0.0,10.0,26,0.00,,,0.00,meteohub,2013-05-03 23:40:00,
2013-05-03 16:45:00,82.0,42.8,29.72,NNW,335,1.0,10.0,25,0.00,,,0.00,meteohub,2013-05-03 23:45:00,
2013-05-03 16:50:00,81.9,43.7,29.72,NNW,333,0.0,7.0,26,0.00,,,0.00,meteohub,2013-05-03 23:50:00,
2013-05-03 16:55:00,81.5,41.2,29.71,NW,319,1.0,7.0,24,0.00,,,0.00,meteohub,2013-05-03 23:55:00,
2013-05-03 17:00:00,81.0,40.8,29.71,NW,314,0.0,5.0,24,0.00,,,0.00,meteohub,2013-05-04 00:00:00,
2013-05-03 17:05:00,80.8,45.5,29.71,NW,314,0.0,7.0,29,0.00,,,0.00,meteohub,2013-05-04 00:05:00,
2013-05-03 17:10:00,80.2,41.2,29.72,NW,314,0.0,7.0,25,0.00,,,0.00,meteohub,2013-05-04 00:10:00,
2013-05-03 17:15:00,80.1,40.1,29.72,NW,314,0.0,3.0,24,0.00,,,0.00,meteohub,2013-05-04 00:15:00,
2013-05-03 17:20:00,79.7,37.6,29.72,NW,311,2.0,5.0,22,0.00,,,0.00,meteohub,2013-05-04 00:20:00,
2013-05-03 17:25:00,79.3,37.2,29.72,NW,311,0.0,5.0,22,0.00,,,0.00,meteohub,2013-05-04 00:25:00,
2013-05-03 17:30:00,79.0,39.2,29.72,WNW,300,0.0,6.0,24,0.00,,,0.00,meteohub,2013-05-04 00:30:00,
2013-05-03 17:35:00,78.6,41.9,29.72,WNW,300,0.0,6.0,27,0.00,,,0.00,meteohub,2013-05-04 00:35:00,
2013-05-03 17:40:00,78.3,42.4,29.71,WNW,288,0.0,6.0,28,0.00,,,0.00,meteohub,2013-05-04 00:40:00,
2013-05-03 17:45:00,77.7,42.1,29.71,WNW,288,0.0,4.0,28,0.00,,,0.00,meteohub,2013-05-04 00:45:00,
2013-05-03 17:50:00,77.2,39.6,29.71,WNW,288,0.0,4.0,26,0.00,,,0.00,meteohub,2013-05-04 00:50:00,
2013-05-03 17:55:00,76.8,42.1,29.71,WNW,288,0.0,2.0,29,0.00,,,0.00,meteohub,2013-05-04 00:55:00,
2013-05-03 18:00:00,76.3,44.2,29.71,WNW,288,0.0,2.0,32,0.00,,,0.00,meteohub,2013-05-04 01:00:00,
2013-05-03 18:05:00,75.9,42.3,29.71,WNW,288,0.0,1.0,30,0.00,,,0.00,meteohub,2013-05-04 01:05:00,
2013-05-03 18:10:00,75.6,45.1,29.71,WNW,288,0.0,0.0,34,0.00,,,0.00,meteohub,2013-05-04 01:10:00,
2013-05-03 18:15:00,75.0,45.5,29.71,WNW,288,0.0,0.0,35,0.00,,,0.00,meteohub,2013-05-04 01:15:00,
2013-05-03 18:20:00,74.7,45.1,29.71,WNW,288,0.0,0.0,35,0.00,,,0.00,meteohub,2013-05-04 01:20:00,
2013-05-03 18:25:00,74.1,44.8,29.71,WNW,288,0.0,0.0,35,0.00,,,0.00,meteohub,2013-05-04 01:25:00,
2013-05-03 18:30:00,73.9,44.6,29.71,WNW,288,0.0,0.0,35,0.00,,,0.00,meteohub,2013-05-04 01:30:00,
2013-05-03 18:35:00,73.6,45.0,29.71,WNW,288,0.0,0.0,36,0.00,,,0.00,meteohub,2013-05-04 01:35:00,
2013-05-03 18:40:00,73.2,44.6,29.71,WNW,288,0.0,1.0,36,0.00,,,0.00,meteohub,2013-05-04 01:40:00,
2013-05-03 18:45:00,73.0,45.9,29.71,WNW,288,0.0,1.0,38,0.00,,,0.00,meteohub,2013-05-04 01:45:00,
2013-05-03 18:50:00,72.9,45.1,29.71,West,276,0.0,1.0,37,0.00,,,0.00,meteohub,2013-05-04 01:50:00,
2013-05-03 18:55:00,72.5,46.2,29.70,West,276,0.0,1.0,39,0.00,,,0.00,meteohub,2013-05-04 01:55:00,
2013-05-03 19:00:00,72.3,46.0,29.70,West,276,0.0,0.0,39,0.00,,,0.00,meteohub,2013-05-04 02:00:00,
2013-05-03 19:05:00,72.0,45.0,29.70,West,276,0.0,0.0,38,0.00,,,0.00,meteohub,2013-05-04 02:05:00,
2013-05-03 19:10:00,71.8,45.5,29.70,West,276,0.0,0.0,39,0.00,,,0.00,meteohub,2013-05-04 02:10:00,
2013-05-03 19:15:00,71.4,45.9,29.70,West,276,0.0,0.0,40,0.00,,,0.00,meteohub,2013-05-04 02:15:00,
2013-05-03 19:20:00,71.1,45.5,29.70,West,276,0.0,0.0,40,0.00,,,0.00,meteohub,2013-05-04 02:20:00,
2013-05-03 19:25:00,70.7,45.1,29.70,West,276,0.0,0.0,40,0.00,,,0.00,meteohub,2013-05-04 02:25:00,
2013-05-03 19:30:00,70.3,46.2,29.70,West,276,0.0,0.0,42,0.00,,,0.00,meteohub,2013-05-04 02:30:00,
2013-05-03 19:35:00,70.0,46.4,29.70,West,276,0.0,0.0,43,0.00,,,0.00,meteohub,2013-05-04 02:35:00,
2013-05-03 19:40:00,69.4,46.6,29.69,West,276,0.0,0.0,44,0.00,,,0.00,meteohub,2013-05-04 02:40:00,
2013-05-03 19:45:00,69.3,46.4,29.69,West,276,0.0,0.0,44,0.00,,,0.00,meteohub,2013-05-04 02:45:00,
2013-05-03 19:50:00,68.7,47.1,29.69,West,276,0.0,0.0,46,0.00,,,0.00,meteohub,2013-05-04 02:50:00,
2013-05-03 19:55:00,68.4,47.3,29.69,West,276,0.0,0.0,47,0.00,,,0.00,meteohub,2013-05-04 02:55:00,
2013-05-03 20:00:00,68.0,46.9,29.69,West,276,0.0,0.0,47,0.00,,,0.00,meteohub,2013-05-04 03:00:00,
2013-05-03 20:05:00,67.5,47.1,29.69,West,276,0.0,0.0,48,0.00,,,0.00,meteohub,2013-05-04 03:05:00,
2013-05-03 20:10:00,67.1,46.2,29.69,West,276,0.0,0.0,47,0.00,,,0.00,meteohub,2013-05-04 03:10:00,
2013-05-03 20:15:00,66.7,46.9,29.69,West,276,0.0,0.0,49,0.00,,,0.00,meteohub,2013-05-04 03:15:00,
2013-05-03 20:20:00,66.4,45.5,29.69,West,276,0.0,0.0,47,0.00,,,0.00,meteohub,2013-05-04 03:20:00,
2013-05-03 20:25:00,65.8,45.7,29.68,West,276,0.0,0.0,48,0.00,,,0.00,meteohub,2013-05-04 03:25:00,
2013-05-03 20:30:00,65.7,45.5,29.68,West,276,0.0,0.0,48,0.00,,,0.00,meteohub,2013-05-04 03:30:00,
2013-05-03 20:35:00,65.1,43.9,29.68,West,276,0.0,0.0,46,0.00,,,0.00,meteohub,2013-05-04 03:35:00,
2013-05-03 20:40:00,64.9,44.2,29.68,West,276,0.0,0.0,47,0.00,,,0.00,meteohub,2013-05-04 03:40:00,
2013-05-03 20:45:00,64.6,44.4,29.68,West,276,0.0,0.0,48,0.00,,,0.00,meteohub,2013-05-04 03:45:00,
2013-05-03 20:50:00,64.0,43.3,29.68,West,276,0.0,0.0,47,0.00,,,0.00,meteohub,2013-05-04 03:50:00,
2013-05-03 20:55:00,63.9,44.8,29.68,West,276,0.0,0.0,50,0.00,,,0.00,meteohub,2013-05-04 03:55:00,
2013-05-03 21:00:00,63.5,44.6,29.68,West,276,0.0,0.0,50,0.00,,,0.00,meteohub,2013-05-04 04:00:00,
2013-05-03 21:01:00,63.5,44.6,29.68,West,276,0.0,0.0,50,0.00,,,0.00,meteohub,2013-05-04 04:01:00,
2013-05-03 21:06:00,63.1,44.2,29.68,West,276,0.0,0.0,50,0.00,,,0.00,meteohub,2013-05-04 04:06:00,
2013-05-03 21:11:00,63.0,44.1,29.68,West,276,0.0,0.0,50,0.00,,,0.00,meteohub,2013-05-04 04:11:00,
2013-05-03 21:16:00,62.6,43.7,29.68,West,276,0.0,0.0,50,0.00,,,0.00,meteohub,2013-05-04 04:16:00,
2013-05-03 21:21:00,62.4,43.5,29.68,West,276,0.0,0.0,50,0.00,,,0.00,meteohub,2013-05-04 04:21:00,
2013-05-03 21:26:00,62.2,43.9,29.67,West,276,0.0,0.0,51,0.00,,,0.00,meteohub,2013-05-04 04:26:00,
2013-05-03 21:31:00,62.1,43.7,29.67,West,276,0.0,0.0,51,0.00,,,0.00,meteohub,2013-05-04 04:31:00,
2013-05-03 21:36:00,61.9,44.1,29.67,West,276,0.0,0.0,52,0.00,,,0.00,meteohub,2013-05-04 04:36:00,
2013-05-03 21:41:00,61.7,43.3,29.67,West,276,0.0,0.0,51,0.00,,,0.00,meteohub,2013-05-04 04:41:00,
2013-05-03 21:46:00,61.3,43.0,29.67,West,276,0.0,0.0,51,0.00,,,0.00,meteohub,2013-05-04 04:46:00,
2013-05-03 21:51:00,61.3,43.5,29.67,West,276,0.0,0.0,52,0.00,,,0.00,meteohub,2013-05-04 04:51:00,
2013-05-03 21:56:00,61.2,43.0,29.68,West,276,0.0,0.0,51,0.00,,,0.00,meteohub,2013-05-04 04:56:00,
2013-05-03 22:01:00,61.0,42.8,29.68,West,276,0.0,0.0,51,0.00,,,0.00,meteohub,2013-05-04 05:01:00,
2013-05-03 22:06:00,60.6,42.4,29.68,West,276,0.0,0.0,51,0.00,,,0.00,meteohub,2013-05-04 05:06:00,
2013-05-03 22:11:00,60.4,43.2,29.68,West,276,0.0,0.0,53,0.00,,,0.00,meteohub,2013-05-04 05:11:00,
2013-05-03 22:16:00,60.3,42.6,29.68,West,276,0.0,0.0,52,0.00,,,0.00,meteohub,2013-05-04 05:16:00,
2013-05-03 22:21:00,60.1,42.4,29.68,West,276,0.0,0.0,52,0.00,,,0.00,meteohub,2013-05-04 05:21:00,
2013-05-03 22:26:00,59.7,42.1,29.67,West,276,0.0,0.0,52,0.00,,,0.00,meteohub,2013-05-04 05:26:00,
2013-05-03 22:31:00,59.5,42.4,29.67,West,276,0.0,0.0,53,0.00,,,0.00,meteohub,2013-05-04 05:31:00,
2013-05-03 22:36:00,59.4,42.8,29.67,West,276,0.0,0.0,54,0.00,,,0.00,meteohub,2013-05-04 05:36:00,
2013-05-03 22:41:00,59.2,42.6,29.67,West,276,0.0,0.0,54,0.00,,,0.00,meteohub,2013-05-04 05:41:00,
2013-05-03 22:46:00,58.8,42.6,29.67,West,276,0.0,0.0,55,0.00,,,0.00,meteohub,2013-05-04 05:46:00,
2013-05-03 22:51:00,58.6,42.4,29.67,West,276,0.0,0.0,55,0.00,,,0.00,meteohub,2013-05-04 05:51:00,
2013-05-03 22:56:00,58.5,42.4,29.67,West,276,0.0,0.0,55,0.00,,,0.00,meteohub,2013-05-04 05:56:00,
2013-05-03 23:01:00,58.3,42.3,29.67,West,276,0.0,0.0,55,0.00,,,0.00,meteohub,2013-05-04 06:01:00,
2013-05-03 23:06:00,57.9,41.9,29.67,West,276,0.0,0.0,55,0.00,,,0.00,meteohub,2013-05-04 06:06:00,
2013-05-03 23:11:00,57.9,41.4,29.66,West,276,0.0,0.0,54,0.00,,,0.00,meteohub,2013-05-04 06:11:00,
2013-05-03 23:16:00,57.7,41.7,29.66,West,276,0.0,0.0,55,0.00,,,0.00,meteohub,2013-05-04 06:16:00,
2013-05-03 23:21:00,57.6,41.5,29.66,West,276,0.0,0.0,55,0.00,,,0.00,meteohub,2013-05-04 06:21:00,
2013-05-03 23:26:00,57.4,41.4,29.65,West,276,0.0,0.0,55,0.00,,,0.00,meteohub,2013-05-04 06:26:00,
2013-05-03 23:31:00,57.0,41.5,29.65,West,276,0.0,0.0,56,0.00,,,0.00,meteohub,2013-05-04 06:31:00,
2013-05-03 23:36:00,56.8,41.4,29.65,West,276,0.0,0.0,56,0.00,,,0.00,meteohub,2013-05-04 06:36:00,
2013-05-03 23:41:00,56.8,41.4,29.65,West,276,0.0,0.0,56,0.00,,,0.00,meteohub,2013-05-04 06:41:00,
2013-05-03 23:46:00,56.7,41.5,29.65,West,276,0.0,0.0,57,0.00,,,0.00,meteohub,2013-05-04 06:46:00,
2013-05-03 23:51:00,56.7,42.1,29.65,West,276,0.0,0.0,58,0.00,,,0.00,meteohub,2013-05-04 06:51:00,
2013-05-03 23:56:00,56.5,41.4,29.65,West,276,0.0,0.0,57,0.00,,,0.00,meteohub,2013-05-04 06:56:00,